Time;durP1;ratioP1;P1;durP2;ratioP2;P2;SDS_P1;SDS_P2;PMS_P1;PMS_P2;Temp;Humidity;BMP_temperature;BMP_pressure;BME280_temperature;BME280_humidity;BME280_pressure;Samples;Min_cycle;Max_cycle;Signal;HPM_P1;HPM_P2
2021/09/26 00:01:44;;;;;;;63.45;42.50;;;;;;;;;;5024037;28;20079;-71
2021/09/26 00:04:10;;;;;;;78.82;45.80;;;;;;;;;;5043269;28;20029;-71
2021/09/26 00:06:36;;;;;;;65.88;44.17;;;;;;;;;;5039641;28;20041;-71
2021/09/26 00:09:03;;;;;;;64.28;42.72;;;;;;;;;;5024412;28;20119;-71
2021/09/26 00:11:29;;;;;;;66.00;44.13;;;;;;;;;;5047048;28;20045;-71
2021/09/26 00:13:55;;;;;;;69.93;43.92;;;;;;;;;;5043318;28;20086;-71
2021/09/26 00:16:22;;;;;;;65.82;44.05;;;;;;;;;;5042365;28;20045;-71
2021/09/26 00:18:48;;;;;;;71.82;43.50;;;;;;;;;;5022518;28;20115;-71
2021/09/26 00:21:15;;;;;;;64.50;43.75;;;;;;;;;;5042724;28;20477;-71
2021/09/26 00:23:41;;;;;;;68.53;43.33;;;;;;;;;;5041824;28;20033;-71
2021/09/26 00:26:07;;;;;;;70.32;44.97;;;;;;;;;;5040744;28;20508;-71
2021/09/26 00:28:35;;;;;;;67.47;41.25;;;;;;;;;;5044206;28;20060;-71
2021/09/26 00:31:02;;;;;;;62.00;43.22;;;;;;;;;;5041138;28;20056;-71
2021/09/26 00:33:29;;;;;;;68.30;43.72;;;;;;;;;;5044653;28;20095;-71
2021/09/26 00:35:55;;;;;;;75.50;46.83;;;;;;;;;;5024531;28;20037;-71
2021/09/26 00:38:21;;;;;;;66.20;43.50;;;;;;;;;;5023188;28;20095;-71
2021/09/26 00:40:48;;;;;;;62.22;43.20;;;;;;;;;;5043145;28;20041;-71
2021/09/26 00:43:14;;;;;;;64.43;42.05;;;;;;;;;;5024025;28;20057;-71
2021/09/26 00:45:40;;;;;;;63.15;41.72;;;;;;;;;;5042279;28;20041;-71
2021/09/26 00:48:07;;;;;;;64.50;44.15;;;;;;;;;;5027356;28;20041;-71
2021/09/26 00:50:33;;;;;;;62.85;42.95;;;;;;;;;;5019925;28;20049;-71
2021/09/26 00:52:59;;;;;;;65.30;41.83;;;;;;;;;;5041341;28;20504;-71
2021/09/26 00:55:26;;;;;;;66.68;43.05;;;;;;;;;;5027289;28;20060;-71
2021/09/26 00:57:53;;;;;;;65.15;41.75;;;;;;;;;;5033441;28;20436;-71
2021/09/26 01:00:20;;;;;;;63.45;41.08;;;;;;;;;;5044168;28;20052;-72
2021/09/26 01:02:46;;;;;;;60.03;40.35;;;;;;;;;;5028975;28;20045;-71
2021/09/26 01:05:14;;;;;;;64.57;40.85;;;;;;;;;;5028382;28;20116;-71
2021/09/26 01:07:47;;;;;;;62.42;40.53;;;;;;;;;;5045411;28;20496;-71
2021/09/26 01:10:15;;;;;;;58.28;39.85;;;;;;;;;;5028611;28;20477;-71
2021/09/26 01:12:48;;;;;;;57.78;39.45;;;;;;;;;;5011042;28;20055;-71
2021/09/26 01:15:18;;;;;;;60.63;40.65;;;;;;;;;;5026342;28;20478;-71
2021/09/26 01:17:46;;;;;;;62.38;39.60;;;;;;;;;;5028113;28;20063;-71
2021/09/26 01:20:13;;;;;;;62.50;39.25;;;;;;;;;;5027532;28;20044;-71
2021/09/26 01:23:01;;;;;;;65.38;42.33;;;;;;;;;;5027181;28;20152;-71
2021/09/26 01:25:52;;;;;;;66.60;41.15;;;;;;;;;;5044886;28;20041;-71
2021/09/26 01:28:24;;;;;;;59.15;39.67;;;;;;;;;;5047163;28;20524;-71
2021/09/26 01:30:52;;;;;;;60.63;38.97;;;;;;;;;;5027608;28;20174;-71
2021/09/26 01:33:32;;;;;;;61.75;37.95;;;;;;;;;;5026443;28;20823;-71
2021/09/26 01:36:07;;;;;;;60.45;37.60;;;;;;;;;;5047136;28;20068;-71
2021/09/26 01:38:37;;;;;;;58.08;37.45;;;;;;;;;;5043877;28;20045;-71
2021/09/26 01:41:06;;;;;;;57.00;37.00;;;;;;;;;;5045542;28;20040;-71
2021/09/26 01:43:36;;;;;;;59.30;38.85;;;;;;;;;;5048531;28;20635;-71
2021/09/26 01:46:05;;;;;;;54.55;36.88;;;;;;;;;;5045402;28;20488;-71
2021/09/26 01:48:37;;;;;;;62.33;39.60;;;;;;;;;;5044189;28;20063;-71
2021/09/26 01:51:04;;;;;;;55.03;37.53;;;;;;;;;;5026916;28;20091;-71
2021/09/26 01:53:31;;;;;;;57.70;37.20;;;;;;;;;;5045255;28;20045;-71
2021/09/26 01:55:58;;;;;;;61.85;39.20;;;;;;;;;;5046203;28;20091;-71
2021/09/26 01:58:24;;;;;;;56.13;36.95;;;;;;;;;;5044749;28;20114;-71
2021/09/26 02:00:51;;;;;;;55.08;37.67;;;;;;;;;;5025129;28;20147;-71
2021/09/26 02:03:19;;;;;;;56.97;36.55;;;;;;;;;;5028691;28;20111;-71
2021/09/26 02:05:46;;;;;;;59.38;36.42;;;;;;;;;;5047038;28;20599;-71
2021/09/26 02:08:12;;;;;;;54.28;37.17;;;;;;;;;;5025043;28;20041;-71
2021/09/26 02:10:41;;;;;;;61.15;37.13;;;;;;;;;;5043888;28;20044;-71
2021/09/26 02:13:08;;;;;;;59.25;37.53;;;;;;;;;;5046525;28;20171;-71
2021/09/26 02:15:35;;;;;;;53.22;35.65;;;;;;;;;;5044107;28;20115;-71
2021/09/26 02:18:02;;;;;;;60.60;38.70;;;;;;;;;;5044349;28;20045;-71
2021/09/26 02:20:29;;;;;;;56.33;38.13;;;;;;;;;;5043463;28;20052;-71
2021/09/26 02:22:56;;;;;;;57.60;37.55;;;;;;;;;;5044294;28;20428;-71
2021/09/26 02:25:22;;;;;;;50.50;36.50;;;;;;;;;;5043491;28;20099;-71
2021/09/26 02:27:49;;;;;;;55.90;37.30;;;;;;;;;;5045332;28;20086;-71
2021/09/26 02:30:15;;;;;;;58.90;37.25;;;;;;;;;;5043434;28;20037;-71
2021/09/26 02:32:42;;;;;;;57.53;36.95;;;;;;;;;;5044542;28;20084;-71
2021/09/26 02:35:09;;;;;;;63.08;40.08;;;;;;;;;;5028653;28;20048;-71
2021/09/26 02:37:35;;;;;;;54.15;37.58;;;;;;;;;;5025905;28;20447;-71
2021/09/26 02:40:02;;;;;;;60.22;38.78;;;;;;;;;;5027934;28;20049;-71
2021/09/26 02:42:35;;;;;;;59.30;39.05;;;;;;;;;;5026336;28;20059;-71
2021/09/26 02:45:05;;;;;;;53.03;38.13;;;;;;;;;;5025581;28;20079;-71
2021/09/26 02:47:37;;;;;;;64.28;38.58;;;;;;;;;;5023447;28;20207;-71
2021/09/26 02:50:03;;;;;;;61.15;38.25;;;;;;;;;;5038721;28;20044;-71
2021/09/26 02:52:30;;;;;;;62.97;39.47;;;;;;;;;;5029142;28;20061;-71
2021/09/26 02:54:56;;;;;;;59.78;39.40;;;;;;;;;;5026939;28;20400;-71
2021/09/26 02:57:23;;;;;;;58.15;40.20;;;;;;;;;;5044584;28;20049;-71
2021/09/26 02:59:50;;;;;;;56.80;37.88;;;;;;;;;;5024945;28;20049;-71
2021/09/26 03:02:16;;;;;;;64.35;40.45;;;;;;;;;;5024210;28;20056;-71
2021/09/26 03:04:43;;;;;;;61.40;39.95;;;;;;;;;;5040959;28;20045;-71
2021/09/26 03:07:09;;;;;;;58.05;40.40;;;;;;;;;;5027376;28;20400;-71
2021/09/26 03:09:35;;;;;;;57.50;39.65;;;;;;;;;;5026023;28;20176;-71
2021/09/26 03:12:09;;;;;;;63.38;39.83;;;;;;;;;;5026902;28;20486;-71
2021/09/26 03:14:35;;;;;;;56.63;38.58;;;;;;;;;;5026256;28;20049;-71
2021/09/26 03:17:01;;;;;;;62.95;41.83;;;;;;;;;;5026817;28;20127;-71
2021/09/26 03:19:28;;;;;;;64.47;40.10;;;;;;;;;;5040222;28;20483;-71
2021/09/26 03:21:54;;;;;;;57.70;38.35;;;;;;;;;;5025377;28;20485;-71
2021/09/26 03:24:20;;;;;;;59.17;39.38;;;;;;;;;;5043631;28;20096;-71
2021/09/26 03:26:46;;;;;;;62.83;40.78;;;;;;;;;;5026505;28;20207;-71
2021/09/26 03:29:12;;;;;;;62.97;41.20;;;;;;;;;;5043528;28;20045;-71
2021/09/26 03:31:38;;;;;;;66.07;42.72;;;;;;;;;;5043338;28;20037;-71
2021/09/26 03:34:04;;;;;;;72.72;42.40;;;;;;;;;;5026522;28;20071;-71
2021/09/26 03:36:31;;;;;;;64.70;44.20;;;;;;;;;;5023677;28;20045;-71
2021/09/26 03:38:57;;;;;;;64.03;40.78;;;;;;;;;;5025076;28;20064;-71
2021/09/26 03:41:23;;;;;;;58.63;39.72;;;;;;;;;;5025989;28;20048;-71
2021/09/26 03:43:49;;;;;;;66.07;41.83;;;;;;;;;;5041447;28;20051;-71
2021/09/26 03:46:15;;;;;;;56.15;40.10;;;;;;;;;;5043035;28;20139;-71
2021/09/26 03:48:41;;;;;;;65.65;41.67;;;;;;;;;;5025994;28;20057;-71
2021/09/26 03:51:07;;;;;;;62.67;42.30;;;;;;;;;;5028545;28;20061;-71
2021/09/26 03:53:34;;;;;;;66.65;41.15;;;;;;;;;;5040500;28;20052;-71
2021/09/26 03:56:00;;;;;;;68.40;44.30;;;;;;;;;;5038299;28;20049;-71
2021/09/26 03:58:26;;;;;;;76.18;44.33;;;;;;;;;;5044034;28;20159;-71
2021/09/26 04:00:53;;;;;;;62.72;40.88;;;;;;;;;;5041381;28;20049;-71
2021/09/26 04:03:19;;;;;;;66.50;44.22;;;;;;;;;;5025105;28;20122;-71
2021/09/26 04:05:45;;;;;;;67.82;41.92;;;;;;;;;;5027192;28;20124;-71
2021/09/26 04:08:11;;;;;;;67.82;42.75;;;;;;;;;;5023781;28;20062;-71
2021/09/26 04:10:37;;;;;;;75.40;45.08;;;;;;;;;;5042393;28;20055;-71
2021/09/26 04:13:03;;;;;;;74.22;45.70;;;;;;;;;;5026383;28;20076;-71
2021/09/26 04:15:30;;;;;;;76.10;46.15;;;;;;;;;;5040957;28;20072;-71
2021/09/26 04:17:56;;;;;;;69.30;45.25;;;;;;;;;;5023651;28;20055;-71
2021/09/26 04:20:22;;;;;;;78.43;47.22;;;;;;;;;;5024948;28;20081;-71
2021/09/26 04:22:48;;;;;;;79.18;50.38;;;;;;;;;;5040458;28;20492;-71
2021/09/26 04:25:14;;;;;;;81.88;50.10;;;;;;;;;;5024006;28;20495;-71
2021/09/26 04:27:41;;;;;;;76.38;47.58;;;;;;;;;;5043863;28;20443;-71
2021/09/26 04:30:08;;;;;;;92.25;51.83;;;;;;;;;;5027865;28;20033;-71
2021/09/26 04:32:34;;;;;;;84.25;50.53;;;;;;;;;;5029326;28;20159;-71
2021/09/26 04:35:00;;;;;;;78.40;46.47;;;;;;;;;;5046881;28;20063;-71
2021/09/26 04:37:26;;;;;;;75.40;48.55;;;;;;;;;;5028886;28;20040;-71
2021/09/26 04:39:53;;;;;;;79.30;48.63;;;;;;;;;;5047479;28;20135;-71
2021/09/26 04:42:19;;;;;;;87.13;49.60;;;;;;;;;;5026782;28;20438;-71
2021/09/26 04:44:45;;;;;;;82.03;48.45;;;;;;;;;;5044482;28;20512;-71
2021/09/26 04:47:11;;;;;;;86.50;50.50;;;;;;;;;;5027695;28;20053;-71
2021/09/26 04:49:37;;;;;;;87.50;51.92;;;;;;;;;;5046805;28;20119;-71
2021/09/26 04:52:04;;;;;;;94.70;52.75;;;;;;;;;;5045766;28;20112;-71
2021/09/26 04:54:30;;;;;;;87.05;50.20;;;;;;;;;;5046316;28;20056;-71
2021/09/26 04:56:56;;;;;;;93.47;52.47;;;;;;;;;;5026035;28;20160;-71
2021/09/26 04:59:24;;;;;;;103.03;53.42;;;;;;;;;;5028916;28;20053;-71
2021/09/26 05:01:50;;;;;;;98.22;53.50;;;;;;;;;;5028015;28;20071;-71
2021/09/26 05:04:16;;;;;;;83.90;51.97;;;;;;;;;;5043235;28;20473;-71
2021/09/26 05:06:43;;;;;;;93.70;52.50;;;;;;;;;;5026373;28;20765;-71
2021/09/26 05:09:09;;;;;;;86.53;52.60;;;;;;;;;;5027330;28;20460;-71
2021/09/26 05:11:35;;;;;;;94.47;52.25;;;;;;;;;;5043066;28;20044;-71
2021/09/26 05:14:01;;;;;;;99.00;54.30;;;;;;;;;;5047116;28;20496;-71
2021/09/26 05:16:27;;;;;;;105.45;57.90;;;;;;;;;;5043823;28;20405;-71
2021/09/26 05:18:53;;;;;;;97.18;54.33;;;;;;;;;;5025018;28;20055;-71
2021/09/26 05:21:20;;;;;;;103.88;58.13;;;;;;;;;;5045049;28;20081;-71
2021/09/26 05:23:47;;;;;;;99.82;55.90;;;;;;;;;;5029181;28;20059;-71
2021/09/26 05:26:13;;;;;;;97.63;55.33;;;;;;;;;;5027686;28;20071;-71
2021/09/26 05:28:39;;;;;;;89.72;52.65;;;;;;;;;;5050843;28;20500;-71
2021/09/26 05:31:06;;;;;;;94.03;54.85;;;;;;;;;;5049649;28;20095;-71
2021/09/26 05:33:33;;;;;;;90.40;52.35;;;;;;;;;;5049730;28;20114;-70
2021/09/26 05:35:59;;;;;;;93.85;55.67;;;;;;;;;;5033907;28;20091;-71
2021/09/26 05:38:25;;;;;;;86.68;52.70;;;;;;;;;;5048547;28;20127;-71
2021/09/26 05:40:52;;;;;;;99.15;56.85;;;;;;;;;;5027696;28;20560;-71
2021/09/26 05:43:18;;;;;;;86.38;53.00;;;;;;;;;;5029350;28;20090;-71
2021/09/26 05:45:44;;;;;;;100.18;56.72;;;;;;;;;;5032066;28;20044;-71
2021/09/26 05:48:11;;;;;;;103.00;56.67;;;;;;;;;;5032972;28;20374;-71
2021/09/26 05:50:37;;;;;;;97.30;54.97;;;;;;;;;;5052012;28;20045;-71
2021/09/26 05:53:03;;;;;;;90.57;51.80;;;;;;;;;;5033621;28;20354;-71
2021/09/26 05:55:29;;;;;;;93.38;54.75;;;;;;;;;;5033206;28;20459;-71
2021/09/26 05:57:55;;;;;;;86.28;50.95;;;;;;;;;;5030690;28;20130;-71
2021/09/26 06:00:25;;;;;;;93.80;52.67;;;;;;;;;;5052116;28;20392;-71
2021/09/26 06:02:52;;;;;;;90.28;52.92;;;;;;;;;;5031160;28;20458;-70
2021/09/26 06:05:19;;;;;;;86.72;51.47;;;;;;;;;;5031491;28;20050;-71
2021/09/26 06:07:45;;;;;;;91.47;52.10;;;;;;;;;;5027707;28;20053;-71
2021/09/26 06:10:11;;;;;;;78.03;49.22;;;;;;;;;;5029407;28;20045;-71
2021/09/26 06:12:37;;;;;;;78.22;48.65;;;;;;;;;;5031423;28;20149;-71
2021/09/26 06:15:04;;;;;;;82.60;51.05;;;;;;;;;;5049106;28;20049;-71
2021/09/26 06:17:32;;;;;;;87.22;50.47;;;;;;;;;;5031827;28;20048;-71
2021/09/26 06:19:59;;;;;;;79.00;48.55;;;;;;;;;;5032649;28;20115;-71
2021/09/26 06:22:25;;;;;;;79.93;47.63;;;;;;;;;;5033605;28;20392;-71
2021/09/26 06:24:52;;;;;;;77.70;48.60;;;;;;;;;;5050977;28;20102;-71
2021/09/26 06:27:19;;;;;;;72.80;48.15;;;;;;;;;;5050281;28;20116;-71
2021/09/26 06:29:46;;;;;;;70.72;46.60;;;;;;;;;;5031015;28;20045;-70
2021/09/26 06:32:12;;;;;;;68.95;45.53;;;;;;;;;;5024141;28;20045;-71
2021/09/26 06:34:38;;;;;;;71.32;46.20;;;;;;;;;;5048055;28;20052;-71
2021/09/26 06:37:05;;;;;;;66.50;45.35;;;;;;;;;;5027857;28;20443;-70
2021/09/26 06:39:32;;;;;;;67.78;45.88;;;;;;;;;;5033294;28;20057;-71
2021/09/26 06:41:58;;;;;;;75.35;46.17;;;;;;;;;;5029523;28;20488;-71
2021/09/26 06:44:24;;;;;;;70.93;42.55;;;;;;;;;;5034353;28;20157;-71
2021/09/26 06:46:50;;;;;;;63.75;42.00;;;;;;;;;;5050335;28;20064;-71
2021/09/26 06:49:17;;;;;;;61.50;41.88;;;;;;;;;;5029954;28;20075;-71
2021/09/26 06:51:43;;;;;;;65.05;42.28;;;;;;;;;;5033486;28;20511;-71
2021/09/26 06:54:09;;;;;;;59.00;41.88;;;;;;;;;;5032051;28;20053;-71
2021/09/26 06:56:35;;;;;;;57.10;40.13;;;;;;;;;;5046708;28;20381;-72
2021/09/26 06:59:02;;;;;;;55.42;39.55;;;;;;;;;;5038342;28;20463;-71
2021/09/26 07:01:32;;;;;;;61.50;40.85;;;;;;;;;;5046608;28;20104;-71
2021/09/26 07:03:58;;;;;;;58.25;39.75;;;;;;;;;;5031729;28;20057;-71
2021/09/26 07:06:24;;;;;;;62.95;39.38;;;;;;;;;;5049657;28;20099;-71
2021/09/26 07:08:50;;;;;;;53.90;37.85;;;;;;;;;;5030623;28;20042;-71
2021/09/26 07:11:18;;;;;;;51.15;37.30;;;;;;;;;;5048930;28;20051;-71
2021/09/26 07:13:45;;;;;;;54.72;37.80;;;;;;;;;;5048560;28;20040;-71
2021/09/26 07:16:11;;;;;;;50.40;35.97;;;;;;;;;;5032969;28;20033;-71
2021/09/26 07:18:37;;;;;;;53.00;37.35;;;;;;;;;;5029337;28;20499;-71
2021/09/26 07:21:03;;;;;;;45.08;34.47;;;;;;;;;;5043979;28;20057;-70
2021/09/26 07:23:29;;;;;;;43.33;33.53;;;;;;;;;;5047229;28;20051;-71
2021/09/26 07:25:55;;;;;;;44.83;31.25;;;;;;;;;;5031798;28;20037;-71
2021/09/26 07:28:22;;;;;;;43.83;33.03;;;;;;;;;;5045583;28;20090;-71
2021/09/26 07:30:48;;;;;;;41.58;31.98;;;;;;;;;;5047550;28;20045;-71
2021/09/26 07:33:14;;;;;;;42.30;32.20;;;;;;;;;;5026725;28;20061;-67
2021/09/26 07:35:41;;;;;;;41.72;31.67;;;;;;;;;;5047172;28;20136;-68
2021/09/26 07:38:07;;;;;;;41.40;31.50;;;;;;;;;;5031131;28;20045;-68
2021/09/26 07:40:33;;;;;;;39.83;29.33;;;;;;;;;;5048246;28;20503;-67
2021/09/26 07:42:59;;;;;;;39.75;30.65;;;;;;;;;;5029536;28;20037;-68
2021/09/26 07:45:25;;;;;;;40.85;31.45;;;;;;;;;;5030955;28;20405;-67
2021/09/26 07:47:52;;;;;;;37.00;29.98;;;;;;;;;;5049028;28;20037;-67
2021/09/26 07:50:24;;;;;;;35.17;28.65;;;;;;;;;;5045568;28;20401;-68
2021/09/26 07:52:50;;;;;;;38.22;29.02;;;;;;;;;;5044861;28;20045;-67
2021/09/26 07:55:16;;;;;;;36.17;27.13;;;;;;;;;;5044344;28;20124;-79
2021/09/26 07:57:42;;;;;;;34.60;27.38;;;;;;;;;;5025471;28;20121;-81
2021/09/26 08:00:09;;;;;;;32.25;26.20;;;;;;;;;;5044075;28;20549;-72
2021/09/26 08:02:35;;;;;;;33.90;25.50;;;;;;;;;;5027380;28;20049;-72
2021/09/26 08:05:01;;;;;;;35.85;26.30;;;;;;;;;;5028993;28;20049;-71
2021/09/26 08:07:29;;;;;;;30.30;24.17;;;;;;;;;;5044476;28;20492;-71
2021/09/26 08:09:56;;;;;;;29.63;23.45;;;;;;;;;;5028410;28;20049;-71
2021/09/26 08:12:23;;;;;;;32.28;23.15;;;;;;;;;;5045114;28;20044;-71
2021/09/26 08:14:49;;;;;;;31.75;23.25;;;;;;;;;;5043064;28;20049;-71
2021/09/26 08:17:15;;;;;;;30.00;22.05;;;;;;;;;;5046895;28;20037;-71
2021/09/26 08:19:42;;;;;;;32.53;23.20;;;;;;;;;;5045217;28;20341;-71
2021/09/26 08:22:08;;;;;;;25.08;20.38;;;;;;;;;;5045129;28;20503;-71
2021/09/26 08:24:35;;;;;;;26.98;20.50;;;;;;;;;;5028998;28;20044;-71
2021/09/26 08:27:02;;;;;;;28.65;20.70;;;;;;;;;;5026978;28;20394;-72
2021/09/26 08:29:28;;;;;;;30.98;21.77;;;;;;;;;;5027750;28;20584;-71
2021/09/26 08:31:55;;;;;;;25.92;20.33;;;;;;;;;;5028756;28;20469;-71
2021/09/26 08:34:21;;;;;;;24.38;19.23;;;;;;;;;;5041212;28;20049;-71
2021/09/26 08:36:47;;;;;;;30.17;21.20;;;;;;;;;;5028553;28;20452;-71
2021/09/26 08:39:13;;;;;;;28.33;20.35;;;;;;;;;;5027771;28;20433;-71
2021/09/26 08:41:40;;;;;;;25.40;19.98;;;;;;;;;;5042855;28;20037;-71
2021/09/26 08:44:06;;;;;;;24.95;20.70;;;;;;;;;;5028613;28;20040;-71
2021/09/26 08:46:33;;;;;;;24.52;19.48;;;;;;;;;;5026165;28;20044;-71
2021/09/26 08:48:59;;;;;;;24.80;19.40;;;;;;;;;;5045032;28;20045;-71
2021/09/26 08:51:26;;;;;;;29.95;20.23;;;;;;;;;;5027184;28;20037;-71
2021/09/26 08:53:52;;;;;;;25.35;20.90;;;;;;;;;;5028640;28;20084;-71
2021/09/26 08:56:20;;;;;;;26.65;19.17;;;;;;;;;;5024977;28;20064;-71
2021/09/26 08:58:48;;;;;;;23.88;17.17;;;;;;;;;;5025970;28;20477;-71
2021/09/26 09:01:14;;;;;;;22.42;17.92;;;;;;;;;;5043359;28;20456;-72
2021/09/26 09:03:45;;;;;;;22.98;16.83;;;;;;;;;;5025386;28;20033;-72
2021/09/26 09:06:11;;;;;;;22.92;17.27;;;;;;;;;;5024992;28;20401;-71
2021/09/26 09:08:41;;;;;;;25.75;18.38;;;;;;;;;;5044443;28;20124;-71
2021/09/26 09:11:08;;;;;;;27.17;18.88;;;;;;;;;;5027144;28;20044;-72
2021/09/26 09:13:35;;;;;;;28.77;18.90;;;;;;;;;;5025057;28;20408;-71
2021/09/26 09:16:09;;;;;;;27.15;18.20;;;;;;;;;;5038888;28;20485;-71
2021/09/26 09:18:43;;;;;;;24.08;17.90;;;;;;;;;;5028682;28;20590;-72
2021/09/26 09:21:17;;;;;;;26.95;19.63;;;;;;;;;;5044114;28;20510;-71
2021/09/26 09:23:43;;;;;;;26.13;19.33;;;;;;;;;;5043520;28;20091;-72
2021/09/26 09:26:09;;;;;;;23.10;17.70;;;;;;;;;;5046732;28;20044;-71
2021/09/26 09:28:39;;;;;;;28.20;19.20;;;;;;;;;;5030288;28;20068;-76
2021/09/26 09:31:06;;;;;;;25.02;17.60;;;;;;;;;;5029083;28;20469;-73
2021/09/26 09:33:40;;;;;;;24.52;18.15;;;;;;;;;;5048315;28;20041;-73
2021/09/26 09:36:22;;;;;;;25.33;18.13;;;;;;;;;;5029842;28;20041;-72
2021/09/26 09:38:50;;;;;;;22.80;17.92;;;;;;;;;;5046785;28;20499;-72
2021/09/26 09:41:35;;;;;;;23.95;19.27;;;;;;;;;;5047508;28;20044;-72
2021/09/26 09:44:02;;;;;;;24.02;17.92;;;;;;;;;;5045353;28;20068;-71
2021/09/26 09:46:29;;;;;;;22.67;17.70;;;;;;;;;;5029166;28;20501;-71
2021/09/26 09:49:17;;;;;;;25.33;19.83;;;;;;;;;;5048732;28;20350;-77
2021/09/26 09:51:50;;;;;;;22.70;17.58;;;;;;;;;;5047241;28;21543;-71
2021/09/26 09:54:16;;;;;;;24.55;18.25;;;;;;;;;;5028383;28;20621;-71
2021/09/26 09:56:43;;;;;;;25.33;18.95;;;;;;;;;;5014937;28;20051;-71
2021/09/26 09:59:11;;;;;;;27.45;18.83;;;;;;;;;;5044072;28;20045;-71
2021/09/26 10:01:39;;;;;;;22.75;17.30;;;;;;;;;;5043692;28;20033;-71
2021/09/26 10:04:07;;;;;;;22.75;17.08;;;;;;;;;;5029298;28;20064;-72
2021/09/26 10:06:35;;;;;;;23.52;18.63;;;;;;;;;;5028716;28;20066;-72
2021/09/26 10:09:04;;;;;;;21.85;17.42;;;;;;;;;;5029658;28;20063;-72
2021/09/26 10:11:30;;;;;;;24.33;17.35;;;;;;;;;;5045202;28;20045;-72
2021/09/26 10:13:58;;;;;;;24.17;18.27;;;;;;;;;;5030040;28;20045;-72
2021/09/26 10:16:25;;;;;;;23.60;18.38;;;;;;;;;;5029254;28;20073;-71
2021/09/26 10:18:51;;;;;;;24.23;18.63;;;;;;;;;;5029057;28;20057;-72
2021/09/26 10:21:17;;;;;;;25.52;18.38;;;;;;;;;;5029466;28;20477;-72
2021/09/26 10:23:44;;;;;;;25.50;17.83;;;;;;;;;;5029846;28;20045;-72
2021/09/26 10:26:11;;;;;;;23.85;18.70;;;;;;;;;;5028245;28;20107;-71
2021/09/26 10:28:37;;;;;;;25.45;18.13;;;;;;;;;;5026867;28;20064;-72
2021/09/26 10:31:05;;;;;;;23.92;17.63;;;;;;;;;;5029657;28;20053;-72
2021/09/26 10:33:31;;;;;;;22.25;18.30;;;;;;;;;;5028149;28;20038;-71
2021/09/26 10:35:58;;;;;;;23.50;18.88;;;;;;;;;;5012296;28;20053;-72
2021/09/26 10:38:25;;;;;;;25.00;18.50;;;;;;;;;;5039911;28;20084;-72
2021/09/26 10:40:51;;;;;;;25.55;19.92;;;;;;;;;;5026729;28;20047;-71
2021/09/26 10:43:18;;;;;;;25.85;19.00;;;;;;;;;;5029504;28;20256;-72
2021/09/26 10:45:44;;;;;;;23.13;19.15;;;;;;;;;;5026875;28;20048;-72
2021/09/26 10:48:10;;;;;;;22.83;18.08;;;;;;;;;;5030713;28;20493;-72
2021/09/26 10:50:38;;;;;;;23.73;18.35;;;;;;;;;;5029655;28;20041;-72
2021/09/26 10:53:09;;;;;;;22.73;18.48;;;;;;;;;;5008390;28;20041;-72
2021/09/26 10:55:35;;;;;;;24.80;18.52;;;;;;;;;;5029035;28;20523;-72
2021/09/26 10:58:01;;;;;;;24.58;18.10;;;;;;;;;;5031466;28;20521;-72
2021/09/26 11:00:32;;;;;;;22.23;18.17;;;;;;;;;;5029962;28;20470;-72
2021/09/26 11:03:05;;;;;;;26.23;18.67;;;;;;;;;;5040500;28;20064;-71
2021/09/26 11:05:36;;;;;;;28.52;18.25;;;;;;;;;;5030816;28;20060;-72
2021/09/26 11:08:03;;;;;;;23.15;18.92;;;;;;;;;;5041919;28;20557;-72
2021/09/26 11:10:34;;;;;;;26.67;20.30;;;;;;;;;;5026890;28;20049;-72
2021/09/26 11:13:09;;;;;;;25.92;19.00;;;;;;;;;;5011443;28;20072;-72
2021/09/26 11:15:55;;;;;;;28.45;20.35;;;;;;;;;;5046355;28;20595;-72
2021/09/26 11:18:40;;;;;;;24.15;19.15;;;;;;;;;;5022402;28;20049;-72
2021/09/26 11:21:06;;;;;;;22.83;18.75;;;;;;;;;;5026556;28;20037;-71
2021/09/26 11:23:33;;;;;;;25.38;19.08;;;;;;;;;;5028461;28;20400;-71
2021/09/26 11:26:00;;;;;;;25.23;19.45;;;;;;;;;;5026644;28;20488;-72
2021/09/26 11:28:26;;;;;;;27.40;20.42;;;;;;;;;;5043796;28;20092;-72
2021/09/26 11:30:53;;;;;;;26.98;20.90;;;;;;;;;;5045152;28;20132;-72
2021/09/26 11:33:19;;;;;;;27.02;19.88;;;;;;;;;;5025324;28;20049;-72
2021/09/26 11:35:46;;;;;;;27.15;19.52;;;;;;;;;;5028279;28;20048;-72
2021/09/26 11:38:14;;;;;;;26.05;19.38;;;;;;;;;;5043213;28;20093;-72
2021/09/26 11:40:51;;;;;;;28.50;19.77;;;;;;;;;;5027168;28;20512;-72
2021/09/26 11:43:19;;;;;;;24.27;19.83;;;;;;;;;;5022902;28;20049;-72
2021/09/26 11:45:46;;;;;;;27.80;20.48;;;;;;;;;;5025099;28;20484;-72
2021/09/26 11:48:12;;;;;;;25.90;20.67;;;;;;;;;;5025493;28;20041;-72
2021/09/26 11:50:40;;;;;;;25.58;19.98;;;;;;;;;;5040211;28;20045;-72
2021/09/26 11:53:06;;;;;;;26.25;20.25;;;;;;;;;;5041787;28;20367;-72
2021/09/26 11:55:34;;;;;;;23.75;19.50;;;;;;;;;;5023768;28;20057;-72
2021/09/26 11:58:01;;;;;;;24.70;19.60;;;;;;;;;;5004135;28;20046;-72
2021/09/26 12:00:31;;;;;;;28.17;21.15;;;;;;;;;;5005510;28;20084;-72
2021/09/26 12:03:11;;;;;;;24.98;19.73;;;;;;;;;;5001480;28;20089;-72
2021/09/26 12:05:38;;;;;;;24.55;20.05;;;;;;;;;;5000598;28;20438;-72
2021/09/26 12:08:05;;;;;;;26.23;20.60;;;;;;;;;;5005005;28;20482;-72
2021/09/26 12:10:32;;;;;;;25.73;20.65;;;;;;;;;;5009901;28;20377;-72
2021/09/26 12:12:58;;;;;;;28.45;20.63;;;;;;;;;;5007065;28;20128;-72
2021/09/26 12:15:26;;;;;;;28.83;20.90;;;;;;;;;;5002663;28;20046;-72
2021/09/26 12:17:56;;;;;;;25.83;20.35;;;;;;;;;;5002394;28;20046;-73
2021/09/26 12:20:23;;;;;;;23.88;19.48;;;;;;;;;;5006699;28;20057;-72
2021/09/26 12:22:52;;;;;;;25.75;20.13;;;;;;;;;;5007723;28;20041;-72
2021/09/26 12:25:27;;;;;;;26.98;20.02;;;;;;;;;;5024177;28;20115;-72
2021/09/26 12:27:56;;;;;;;27.67;20.08;;;;;;;;;;5007308;28;20143;-72
2021/09/26 12:30:25;;;;;;;26.70;20.48;;;;;;;;;;5008354;28;20092;-72
2021/09/26 12:32:53;;;;;;;23.85;19.83;;;;;;;;;;5006753;28;20041;-72
2021/09/26 12:35:28;;;;;;;28.48;19.40;;;;;;;;;;5007478;28;20083;-72
2021/09/26 12:37:57;;;;;;;24.02;20.67;;;;;;;;;;5005910;28;20054;-72
2021/09/26 12:40:26;;;;;;;26.70;21.65;;;;;;;;;;5005719;28;20049;-72
2021/09/26 12:42:53;;;;;;;28.45;21.38;;;;;;;;;;5007062;28;20151;-72
2021/09/26 12:45:23;;;;;;;30.05;20.98;;;;;;;;;;5020724;28;20385;-72
2021/09/26 12:47:51;;;;;;;23.65;20.40;;;;;;;;;;5022009;28;20598;-72
2021/09/26 12:50:19;;;;;;;27.05;21.35;;;;;;;;;;5023131;28;20107;-72
2021/09/26 12:52:45;;;;;;;28.60;20.98;;;;;;;;;;5022685;28;20079;-72
2021/09/26 12:55:13;;;;;;;27.30;21.23;;;;;;;;;;5009296;28;20049;-72
2021/09/26 12:57:41;;;;;;;26.08;20.92;;;;;;;;;;5031285;28;20049;-72
2021/09/26 13:00:13;;;;;;;25.23;19.23;;;;;;;;;;5024266;28;20302;-72
2021/09/26 13:02:41;;;;;;;24.73;20.77;;;;;;;;;;5023541;28;20057;-72
2021/09/26 13:05:09;;;;;;;26.02;20.27;;;;;;;;;;5045163;28;20045;-72
2021/09/26 13:07:36;;;;;;;23.55;18.52;;;;;;;;;;5038914;28;20054;-72
2021/09/26 13:10:06;;;;;;;24.92;19.83;;;;;;;;;;5027636;28;20079;-71
2021/09/26 13:12:32;;;;;;;23.70;19.20;;;;;;;;;;5029862;28;20435;-72
2021/09/26 13:15:04;;;;;;;25.52;18.98;;;;;;;;;;5028926;28;20084;-72
2021/09/26 13:17:30;;;;;;;24.25;18.67;;;;;;;;;;5029654;28;20060;-72
2021/09/26 13:19:57;;;;;;;25.20;17.90;;;;;;;;;;5044515;28;20037;-72
2021/09/26 13:22:29;;;;;;;26.60;18.83;;;;;;;;;;5033341;28;20037;-72
2021/09/26 13:25:22;;;;;;;23.98;18.73;;;;;;;;;;5042324;28;20056;-72
2021/09/26 13:27:57;;;;;;;23.00;19.52;;;;;;;;;;5030250;28;20040;-72
2021/09/26 13:30:24;;;;;;;23.90;19.20;;;;;;;;;;5041301;28;20349;-72
2021/09/26 13:32:53;;;;;;;22.73;19.55;;;;;;;;;;5041934;28;20076;-71
2021/09/26 13:35:21;;;;;;;23.55;18.60;;;;;;;;;;5028950;28;20136;-72
2021/09/26 13:38:06;;;;;;;22.40;17.55;;;;;;;;;;5011261;28;20037;-72
2021/09/26 13:40:34;;;;;;;21.05;16.75;;;;;;;;;;5014738;28;20072;-72
2021/09/26 13:43:02;;;;;;;22.67;16.73;;;;;;;;;;5028616;28;20128;-72
2021/09/26 13:45:28;;;;;;;22.73;17.58;;;;;;;;;;5027977;28;20056;-72
2021/09/26 13:47:55;;;;;;;27.27;17.33;;;;;;;;;;5042075;28;20056;-72
2021/09/26 13:50:21;;;;;;;27.20;18.23;;;;;;;;;;5029942;28;20118;-72
2021/09/26 13:52:47;;;;;;;25.77;16.95;;;;;;;;;;5030806;28;20069;-72
2021/09/26 13:55:14;;;;;;;25.45;16.42;;;;;;;;;;5014962;28;20043;-72
2021/09/26 13:57:40;;;;;;;23.35;16.20;;;;;;;;;;5031243;28;20119;-71
2021/09/26 14:00:08;;;;;;;19.15;15.85;;;;;;;;;;5026892;28;20512;-71
2021/09/26 14:02:34;;;;;;;20.27;15.30;;;;;;;;;;5024353;28;20052;-72
2021/09/26 14:05:01;;;;;;;20.45;15.68;;;;;;;;;;5028662;28;20053;-72
2021/09/26 14:07:27;;;;;;;18.13;15.90;;;;;;;;;;5031474;28;20338;-72
2021/09/26 14:09:53;;;;;;;20.38;15.52;;;;;;;;;;5026591;28;20076;-72
2021/09/26 14:12:19;;;;;;;22.17;16.77;;;;;;;;;;5029000;28;20041;-71
2021/09/26 14:14:46;;;;;;;19.08;15.30;;;;;;;;;;5028399;28;20068;-71
2021/09/26 14:17:14;;;;;;;21.98;16.20;;;;;;;;;;5026978;28;20482;-72
2021/09/26 14:19:40;;;;;;;18.10;14.65;;;;;;;;;;5007738;28;20123;-72